Weather at Ozaukee Airport

Public forecast

Using degrees Fahrenheit for public forecast. Weather courtesy of forecast.io.

Closest aviation weather report (METAR) to Ozaukee Airport

Closest report is West Bend Municipal Airport, 10.4 nm (19.3 km) W. Retrieved 2022/01/22 21:15 UTC (0 seconds ago):

KETB 222115Z AUTO 27016G20KT 10SM CLR M03/M12 A3001 RMK AO2

Closest aviation forecast (TAF) to Ozaukee Airport

Closest forecast is Sheboygan County Memorial Airport, 21.0 nm (38.8 km) N. Retrieved 2022/01/22 18:22 UTC (3 hours ago):

TAF KSBM 221720Z 2218/2318 28018G27KT P6SM -SN SCT025 BKN040 TEMPO 2218/2221 BKN030 FM222100 28012G23KT P6SM SCT090 FM230400 32008KT P6SM VCSH OVC045 FM230600 33008KT 3SM -SN OVC035 FM231000 34011KT P6SM FEW035